Main page
METAR-TAF:

METAR-TAF

Airports :

Land's End Airport

Land's End, England

latitude: 50-06-10N, longitude: 005-40-14W, elevation: 122 m

Current weather observation

The report was made 5 hours and 2 minutes ago, at 17:20 UTC
Wind 16 kt from the West
Temperature 13°C
Humidity 94%
Pressure 1019 hPa
Visibility 10 km or more
Few clouds at a height of 700 ft
Scattered clouds at a height of 1200 ft

METAR: EGHC 251720Z 28016KT 9999 FEW007 SCT012 13/12 Q1019

Time: 23:22 (22:22 UTC)

Forecast

The report was made 7 hours and 11 minutes ago, at 15:11 UTC
Forecast valid from 25 at 15 UTC to 25 at 18 UTC
Wind 12 kt from the West/Southwest
Visibility 10 km or more
Scattered clouds at a height of 1300 ft
Temporary
from 25 at 15 UTC to 25 at 18 UTC
Wind 15 kt from the West with gusts up to 25 kt
Visibility: 4000 m
Broken clouds at a height of 800 ft
light rain, drizzle, mist

TAF: EGHC 251511Z 2515/2518 25012KT 9999 SCT013 TEMPO 2515/2518 26015G25KT 4000 -RADZ BR BKN008

Weather observations and forecasts of more than 4000 airports (METAR and TAF reports).

The available stations are represented by yellow and red dots on the map.

Hover mouse over dot to see the name of the station.

Then click to see weather observations and forecasts.

To change the map : click on the green buttons with a black cross to zoom in, on the green button with a dash to zoom out, or on the green arrows for adjacent maps.


METAR-TAF: